createdAt,value
2023-04-27T00:04:32.326Z,100.00
2023-04-27T00:09:59.124Z,100.00
2023-04-27T00:15:24.076Z,100.00
2023-04-27T00:20:48.146Z,100.00
2023-04-27T00:26:16.123Z,100.00
2023-04-27T00:31:42.102Z,100.00
2023-04-27T00:37:07.086Z,100.00
2023-04-27T00:42:35.114Z,100.00
2023-04-27T00:48:00.287Z,100.00
2023-04-27T00:53:26.108Z,100.00
2023-04-27T00:59:01.130Z,100.00
2023-04-27T01:04:27.254Z,100.00
2023-04-27T01:09:51.082Z,100.00
2023-04-27T01:15:21.131Z,100.00
2023-04-27T01:20:46.142Z,100.00
2023-04-27T01:26:15.150Z,100.00
2023-04-27T01:31:39.195Z,100.00
2023-04-27T01:37:04.114Z,100.00
2023-04-27T01:42:32.099Z,100.00
2023-04-27T01:48:01.120Z,100.00
2023-04-27T01:53:25.128Z,100.00
2023-04-27T01:58:59.176Z,100.00
2023-04-27T02:04:24.270Z,100.00
2023-04-27T02:09:49.137Z,100.00
2023-04-27T02:15:18.145Z,100.00
2023-04-27T02:20:43.142Z,100.00
2023-04-27T02:26:08.154Z,100.00
2023-04-27T02:31:36.194Z,100.00
2023-04-27T02:42:23.150Z,100.00
2023-04-27T02:47:51.209Z,100.00
2023-04-27T02:53:15.425Z,100.00
2023-04-27T02:58:46.233Z,100.00
2023-04-27T03:04:14.381Z,100.00
2023-04-27T03:09:40.188Z,100.00
2023-04-27T03:15:06.193Z,100.00
2023-04-27T03:20:33.181Z,100.00
2023-04-27T03:25:58.172Z,100.00
2023-04-27T03:31:23.189Z,100.00
2023-04-27T03:36:51.159Z,100.00
2023-04-27T03:42:16.164Z,100.00
2023-04-27T03:47:41.332Z,100.00
2023-04-27T03:53:09.280Z,100.00
2023-04-27T03:58:40.171Z,100.00
2023-04-27T04:04:08.306Z,100.00
2023-04-27T04:09:36.211Z,100.00
2023-04-27T04:15:01.176Z,100.00
2023-04-27T04:20:27.176Z,100.00
2023-04-27T04:25:56.202Z,100.00
2023-04-27T04:31:25.193Z,100.00
2023-04-27T04:36:51.217Z,100.00
2023-04-27T04:42:18.203Z,100.00
2023-04-27T04:47:43.278Z,100.00
2023-04-27T04:53:14.222Z,100.00
2023-04-27T04:58:48.193Z,100.00
2023-04-27T05:04:13.546Z,100.00
2023-04-27T05:09:38.196Z,100.00
2023-04-27T05:15:06.245Z,100.00
2023-04-27T05:20:31.529Z,100.00
2023-04-27T05:31:22.244Z,100.00
2023-04-27T05:37:00.191Z,100.00
2023-04-27T05:42:24.262Z,100.00
2023-04-27T05:47:57.277Z,100.00
2023-04-27T05:53:30.276Z,100.00
2023-04-27T05:58:55.228Z,100.00
2023-04-27T06:04:20.306Z,100.00
2023-04-27T06:09:48.211Z,100.00
2023-04-27T06:15:15.228Z,100.00
2023-04-27T06:20:41.223Z,100.00
2023-04-27T06:26:08.253Z,100.00
2023-04-27T06:31:34.424Z,100.00
2023-04-27T06:36:58.216Z,100.00
2023-04-27T06:42:26.297Z,100.00
2023-04-27T06:47:51.297Z,100.00
2023-04-27T06:53:17.289Z,100.00
2023-04-27T06:58:51.241Z,100.00
2023-04-27T07:04:16.300Z,100.00
2023-04-27T07:09:42.477Z,100.00
2023-04-27T07:15:11.250Z,100.00
2023-04-27T07:20:36.278Z,100.00
2023-04-27T07:26:01.254Z,100.00
2023-04-27T07:31:29.270Z,100.00
2023-04-27T07:36:55.400Z,100.00
2023-04-27T07:42:20.289Z,100.00
2023-04-27T07:47:49.365Z,100.00
2023-04-27T07:53:15.380Z,100.00
2023-04-27T07:58:47.303Z,100.00
2023-04-27T08:04:15.592Z,100.00
2023-04-27T08:09:39.457Z,100.00
2023-04-27T08:15:13.332Z,100.00
2023-04-27T08:20:41.264Z,100.00
2023-04-27T08:26:05.308Z,100.00
2023-04-27T08:31:30.371Z,100.00
2023-04-27T08:36:58.435Z,100.00
2023-04-27T08:42:24.307Z,100.00
2023-04-27T08:47:49.305Z,100.00
2023-04-27T08:53:27.312Z,100.00
2023-04-27T08:58:56.359Z,100.00
2023-04-27T09:04:21.551Z,100.00
2023-04-27T09:09:49.315Z,100.00
2023-04-27T09:15:15.305Z,94.54
2023-04-27T09:20:40.341Z,93.29
2023-04-27T09:26:10.322Z,100.00
2023-04-27T09:31:36.361Z,100.00
2023-04-27T09:37:02.314Z,86.79
2023-04-27T09:42:30.366Z,91.35
2023-04-27T09:47:55.438Z,86.47
2023-04-27T09:53:23.367Z,98.67
2023-04-27T09:59:25.374Z,93.30
2023-04-27T10:05:03.449Z,76.37
2023-04-27T10:10:32.317Z,79.96
2023-04-27T10:16:00.688Z,86.72
2023-04-27T10:21:32.054Z,100.00
2023-04-27T10:26:58.362Z,85.95
2023-04-27T10:32:27.410Z,86.59
2023-04-27T10:37:54.367Z,82.19
2023-04-27T10:43:25.421Z,76.81
2023-04-27T10:48:53.351Z,80.37
2023-04-27T10:54:19.353Z,82.29
2023-04-27T10:59:56.379Z,79.22
2023-04-27T11:05:37.402Z,69.15
2023-04-27T11:11:02.452Z,68.50
2023-04-27T11:16:26.428Z,71.36
2023-04-27T11:21:54.399Z,67.65
2023-04-27T11:27:19.388Z,71.32
2023-04-27T11:32:44.578Z,73.46
2023-04-27T11:38:15.423Z,68.15
2023-04-27T11:43:41.422Z,67.92
2023-04-27T11:49:06.461Z,70.09
2023-04-27T11:54:38.460Z,72.68
2023-04-27T12:00:15.555Z,71.66
2023-04-27T12:05:43.523Z,62.72
2023-04-27T12:11:11.447Z,62.65
2023-04-27T12:16:37.451Z,65.31
2023-04-27T12:22:01.513Z,61.40
2023-04-27T12:27:29.411Z,63.45
2023-04-27T12:32:53.870Z,60.19
2023-04-27T12:38:18.410Z,60.67
2023-04-27T12:43:47.469Z,60.28
2023-04-27T12:49:13.432Z,58.58
2023-04-27T12:54:38.435Z,58.51
2023-04-27T13:00:16.453Z,55.27
2023-04-27T13:05:41.453Z,53.90
2023-04-27T13:11:06.501Z,55.68
2023-04-27T13:16:34.568Z,57.32
2023-04-27T13:21:58.445Z,54.99
2023-04-27T13:27:23.508Z,52.24
2023-04-27T13:32:50.457Z,53.82
2023-04-27T13:38:15.464Z,53.63
2023-04-27T13:43:39.459Z,52.25
2023-04-27T13:49:07.472Z,51.24
2023-04-27T13:54:33.472Z,54.62
2023-04-27T13:59:58.500Z,51.00
2023-04-27T14:05:27.520Z,51.20
2023-04-27T14:10:53.466Z,49.81
2023-04-27T14:16:17.519Z,49.08
2023-04-27T14:21:45.503Z,50.50
2023-04-27T14:27:10.495Z,50.29
2023-04-27T14:32:35.513Z,51.67
2023-04-27T14:38:03.516Z,51.19
2023-04-27T14:43:28.486Z,49.96
2023-04-27T14:48:52.539Z,52.48
2023-04-27T14:54:20.515Z,51.09
2023-04-27T14:59:52.513Z,50.42
2023-04-27T15:05:24.523Z,53.58
2023-04-27T15:10:52.530Z,52.23
2023-04-27T15:16:17.579Z,53.73
2023-04-27T15:21:43.535Z,52.03
2023-04-27T15:27:17.557Z,52.69
2023-04-27T15:32:42.620Z,51.74
2023-04-27T15:38:08.574Z,53.35
2023-04-27T15:43:37.515Z,51.60
2023-04-27T15:49:03.522Z,52.43
2023-04-27T15:54:29.527Z,51.26
2023-04-27T16:00:03.620Z,50.79
2023-04-27T16:05:28.581Z,52.04
2023-04-27T16:10:53.563Z,52.39
2023-04-27T16:16:21.987Z,51.69
2023-04-27T16:21:46.562Z,51.93
2023-04-27T16:27:11.576Z,53.08
2023-04-27T16:32:39.633Z,54.12
2023-04-27T16:38:08.106Z,52.13
2023-04-27T16:43:32.586Z,52.97
2023-04-27T16:49:11.931Z,52.15
2023-04-27T16:54:37.790Z,53.50
2023-04-27T17:00:03.216Z,51.80
2023-04-27T17:05:30.652Z,52.73
2023-04-27T17:10:55.669Z,52.38
2023-04-27T17:16:22.695Z,54.15
2023-04-27T17:21:50.651Z,55.31
2023-04-27T17:27:14.638Z,58.44
2023-04-27T17:32:39.636Z,60.16
2023-04-27T17:38:01.614Z,61.64
2023-04-27T17:43:26.639Z,63.79
2023-04-27T17:48:51.655Z,65.84
2023-04-27T17:54:18.672Z,68.82
2023-04-27T17:59:43.634Z,72.42
2023-04-27T18:05:07.615Z,77.00
2023-04-27T18:10:35.677Z,84.96
2023-04-27T18:15:59.638Z,90.15
2023-04-27T18:21:24.660Z,93.81
2023-04-27T18:26:53.641Z,99.48
2023-04-27T18:32:19.641Z,100.00
2023-04-27T18:37:44.651Z,100.00
2023-04-27T18:43:12.707Z,100.00
2023-04-27T18:48:36.638Z,100.00
2023-04-27T18:54:02.675Z,100.00
2023-04-27T18:59:29.652Z,100.00
2023-04-27T19:05:11.527Z,100.00
2023-04-27T19:10:37.908Z,100.00
2023-04-27T19:16:05.675Z,100.00
2023-04-27T19:21:29.674Z,100.00
2023-04-27T19:26:54.641Z,100.00
2023-04-27T19:32:22.756Z,100.00
2023-04-27T19:37:48.886Z,100.00
2023-04-27T19:43:13.660Z,100.00
2023-04-27T19:48:42.531Z,100.00
2023-04-27T19:54:07.717Z,100.00
2023-04-27T19:59:38.736Z,100.00
2023-04-27T20:05:06.930Z,100.00
2023-04-27T20:10:30.656Z,100.00
2023-04-27T20:15:55.693Z,100.00
2023-04-27T20:21:22.703Z,100.00
2023-04-27T20:26:47.685Z,100.00
2023-04-27T20:32:11.693Z,100.00
2023-04-27T20:37:43.921Z,100.00
2023-04-27T20:43:07.714Z,100.00
2023-04-27T20:48:34.692Z,100.00
2023-04-27T20:54:02.724Z,100.00
2023-04-27T20:59:27.731Z,100.00
2023-04-27T21:04:51.734Z,100.00
2023-04-27T21:10:20.717Z,100.00
2023-04-27T21:15:44.688Z,100.00
2023-04-27T21:21:09.726Z,100.00
2023-04-27T21:26:36.763Z,100.00
2023-04-27T21:32:02.744Z,100.00
2023-04-27T21:37:26.732Z,100.00
2023-04-27T21:42:54.744Z,100.00
2023-04-27T21:48:19.726Z,100.00
2023-04-27T21:53:44.818Z,100.00
2023-04-27T21:59:12.744Z,100.00
2023-04-27T22:04:37.925Z,100.00
2023-04-27T22:10:02.730Z,100.00
2023-04-27T22:15:30.754Z,100.00
2023-04-27T22:20:55.861Z,100.00
2023-04-27T22:26:20.784Z,100.00
2023-04-27T22:31:47.806Z,100.00
2023-04-27T22:37:14.729Z,100.00
2023-04-27T22:42:38.842Z,100.00
2023-04-27T22:48:06.834Z,100.00
2023-04-27T22:53:31.754Z,100.00
2023-04-27T22:58:56.769Z,100.00
2023-04-27T23:04:24.525Z,100.00
2023-04-27T23:09:49.845Z,100.00
2023-04-27T23:15:15.870Z,100.00
2023-04-27T23:20:43.771Z,100.00
2023-04-27T23:26:08.777Z,100.00
2023-04-27T23:31:34.858Z,100.00
2023-04-27T23:37:02.755Z,100.00
2023-04-27T23:42:27.787Z,100.00
2023-04-27T23:47:52.846Z,100.00
2023-04-27T23:53:20.768Z,100.00
2023-04-27T23:58:51.842Z,100.00
